Details for All Nippon Cargo at RJAA




Go Back


Latest METAR
Local Time

RJAA 241330Z 36012KT CAVOK 06/M02 Q1022 NOSIG RMK A3020

24/02/2018, 22:55:21

Description
Results
All Nippon Cargo Logo
Number of Pilots based at RJAA
0 Pilots Based here
Number of All Nippon Cargo Flights Departed from RJAA
0 Flights Departed
Number of All Nippon Cargo Flights Arrived at RJAA
0 Flights Arrived
Number of All Nippon Cargo Schedules Departing from RJAA
14 Schedules
Number of All Nippon Cargo Schedules Arriving at RJAA
17 Schedules
Number of All Nippon Cargo Schedules Departing from RJAA availible today
14 Schedules Today
Number of All Nippon Cargo Schedules Arriving at RJAA availible today
17 Schedules Today
Average Landing Rate at RJAA
-67 fpm
All Nippon Cargo Average Landing Rate at RJAA
0 fpm
Total Fuel Purchased at RJAA by All Nippon Cargo
0.00 kgs / 0.00 lbs

Pilots Based at RJAA


Pilot ID
Pilot Name
Pilot Rank
No. of Flights
No. of Flying Hours
There are no pilots assigned to this hub!   Will you be the first?
Content